LBWN Airport Information

Runway Information
Runway 09 Length 8202 ft width 180 ft
Elevation 203 ft Threshold 0 ft Heading 97
Runway 27 Length 8202 ft Width 180 ft
Elevation 217 ft Threshold 0 ft Heading 277
Airport Frequencies
Type APP Name APP Frequency 121 MHZ
Type ATIS Name ATIS Frequency 118.075 MHZ
Type TWR Name TWR Frequency 119.5 MHZ
Airport Navaids
Type NDB Name Devnya Frequency 350 KHZ
Type NDB Name Varna Frequency 375 KHZ
Type NDB Name Varna Frequency 335 KHZ
Type NDB Name Varna Frequency 397 KHZ
Type NDB Name Varna Frequency 526 KHZ
Type VOR-DME Name Varna Frequency 112400 KHZ
Airport Weather Information & NOTAM
ADDS - METARS form results

(0807 UTC 01 June 2020)
Data provider http://aviationweather.gov/metar/data/
 
METAR text: LBWN 010800Z 28015KT CAVOK 18/09 Q1010 NOSIG
Conditions at: LBWN (VARNA , BG) observed 0800 UTC 01 June 2020
Temperature: 18.0°C (64°F)
Dewpoint: 9.0°C (48°F) [RH = 56%]
Pressure (altimeter): 29.82 inches Hg (1010.0 mb)
Winds: from the W (280 degrees) at 17 MPH (15 knots; 7.7 m/s)
Visibility: 6 or more miles (10+ km)
Ceiling: ceiling and visibility are OK
Clouds: unknown
Weather: no significant weather observed at this time

METAR text: LBWN 010730Z 27013KT CAVOK 17/09 Q1010 NOSIG
Conditions at: LBWN (VARNA , BG) observed 0730 UTC 01 June 2020
Temperature: 17.0°C (63°F)
Dewpoint: 9.0°C (48°F) [RH = 59%]
Pressure (altimeter): 29.82 inches Hg (1010.0 mb)
Winds: from the W (270 degrees) at 15 MPH (13 knots; 6.7 m/s)
Visibility: 6 or more miles (10+ km)
Ceiling: ceiling and visibility are OK
Clouds: unknown
Weather: no significant weather observed at this time

Forecast for: LBWN (VARNA , BG)
Text: TAF LBWN 010500Z 0106/0206 28012KT 9999 SCT045
Forecast period: 0600 to 1800 UTC 01 June 2020
Forecast type: FROM: standard forecast or significant change
Winds: from the W (280 degrees) at 14 MPH (12 knots; 6.2 m/s)
Visibility: 6 or more miles 10+ km)
Ceiling: at least 12,000 feet AGL
Clouds: scattered clouds at 4500 feet AGL
Weather: no significant weather forecast for this period
Text: BECMG 0118/0120 36010KT
Forecast period: 1800 UTC 01 June 2020 to 0600 UTC 02 June 2020
Forecast type: BECOMING: Conditions expected to become as follows by 2000 UTC 01 June 2020
Winds: from the N (360 degrees) at 12 MPH (10 knots; 5.1 m/s)
Visibility: 6 or more miles 10+ km)
Ceiling: at least 12,000 feet AGL
Clouds: scattered clouds at 4500 feet AGL
Weather: no significant weather forecast for this period
Text: PROB30
Forecast period: 2200 UTC 01 June 2020 to 0400 UTC 02 June 2020
Forecast type: TEMPORARY: The following changes expected for less than half the time period
Visibility: 3 miles (5 km)
Ceiling: 5000 feet AGL
Clouds: few clouds at 3000 feet AGL
broken clouds at 5000 feet AGL
Weather: SHRA  (rain showers)